BAW8412 EGKK-KLAX
Flight info
| Callsign | BAW8412 |
|---|---|
| Flight time | N/A |
| Altitude | 34000 |
| Route | NOVMA L620 SAM N19 ADKIK DCT PEWBI DCT MOPAT DCT RESNO/M084F340 NATB LOMSI/N0493F340 DCT YWK DCT MT DCT SSM DCT KP87K DCT KP78G DCT KD66A DCT KD51U DCT KD42Q DCT JASSE Q90 DNERO ANJLL4 |
| Aircraft | B772/H-SDE2E3FGHIJ5LORVWXY/LB1D1 |
Departure
| Time | 2026-05-04 15:43 |
|---|---|
| Airport | London Gatwick Airport (EGKK) |
Arrival
| Time | N/A |
|---|---|
| Airport | Los Angeles International Airport (KLAX) |
| Time | Latitude | Longitude | Altitude | Speed | Heading |
|---|---|---|---|---|---|
| 2026-05-04 14:56 | 51.15238 | -0.18575 | 201 ft | 0 kts | 77° |
| 2026-05-04 15:23 | 51.15236 | -0.18589 | 201 ft | 2 kts | 77° |
| 2026-05-04 15:24 | 51.15232 | -0.18636 | 201 ft | 2 kts | 94° |
| 2026-05-04 15:24 | 51.15239 | -0.18682 | 201 ft | 2 kts | 119° |
| 2026-05-04 15:25 | 51.15248 | -0.18702 | 201 ft | 2 kts | 131° |
| 2026-05-04 15:25 | 51.15258 | -0.18718 | 201 ft | 2 kts | 144° |
| 2026-05-04 15:25 | 51.15271 | -0.18730 | 200 ft | 2 kts | 157° |
| 2026-05-04 15:26 | 51.15286 | -0.18738 | 200 ft | 0 kts | 168° |
| 2026-05-04 15:30 | 51.15282 | -0.18737 | 200 ft | 2 kts | 168° |
| 2026-05-04 15:30 | 51.15169 | -0.18697 | 202 ft | 8 kts | 175° |
| 2026-05-04 15:31 | 51.15104 | -0.18887 | 202 ft | 11 kts | 257° |
| 2026-05-04 15:31 | 51.15088 | -0.19013 | 202 ft | 11 kts | 258° |
| 2026-05-04 15:32 | 51.15030 | -0.19450 | 199 ft | 14 kts | 258° |
| 2026-05-04 15:32 | 51.14987 | -0.19758 | 201 ft | 12 kts | 257° |
| 2026-05-04 15:33 | 51.14948 | -0.20024 | 202 ft | 11 kts | 257° |
| 2026-05-04 15:34 | 51.14892 | -0.20398 | 203 ft | 11 kts | 257° |
| 2026-05-04 15:34 | 51.14874 | -0.20527 | 203 ft | 12 kts | 257° |
| 2026-05-04 15:34 | 51.14841 | -0.20808 | 202 ft | 12 kts | 259° |
| 2026-05-04 15:35 | 51.14810 | -0.21046 | 205 ft | 0 kts | 257° |
| 2026-05-04 15:40 | 51.14810 | -0.21049 | 205 ft | 1 kts | 257° |
| 2026-05-04 15:40 | 51.14801 | -0.21104 | 205 ft | 8 kts | 255° |
| 2026-05-04 15:41 | 51.14777 | -0.21219 | 206 ft | 13 kts | 256° |
| 2026-05-04 15:41 | 51.14750 | -0.21376 | 209 ft | 13 kts | 232° |
| 2026-05-04 15:41 | 51.14664 | -0.21363 | 209 ft | 13 kts | 143° |
| 2026-05-04 15:41 | 51.14574 | -0.21306 | 208 ft | 14 kts | 158° |
| 2026-05-04 15:42 | 51.14524 | -0.21147 | 206 ft | 20 kts | 79° |
| 2026-05-04 15:42 | 51.14566 | -0.20836 | 202 ft | 54 kts | 77° |
| 2026-05-04 15:42 | 51.14706 | -0.19841 | 199 ft | 127 kts | 77° |
| 2026-05-04 15:42 | 51.14948 | -0.18122 | 210 ft | 186 kts | 77° |
| 2026-05-04 15:43 | 51.15239 | -0.16063 | 907 ft | 190 kts | 77° |
| 2026-05-04 15:43 | 51.15497 | -0.14088 | 1591 ft | 184 kts | 76° |
| 2026-05-04 15:43 | 51.15784 | -0.11978 | 1777 ft | 202 kts | 76° |
| 2026-05-04 15:43 | 51.16101 | -0.09675 | 2071 ft | 217 kts | 75° |
| 2026-05-04 15:44 | 51.16701 | -0.07493 | 2524 ft | 219 kts | 52° |
| 2026-05-04 15:44 | 51.17866 | -0.05894 | 2917 ft | 224 kts | 28° |
| 2026-05-04 15:44 | 51.19348 | -0.05242 | 2969 ft | 223 kts | 2° |
| 2026-05-04 15:44 | 51.20879 | -0.05696 | 2977 ft | 225 kts | 338° |
| 2026-05-04 15:45 | 51.22134 | -0.07180 | 2977 ft | 229 kts | 311° |
| 2026-05-04 15:45 | 51.22843 | -0.09472 | 2977 ft | 236 kts | 283° |
| 2026-05-04 15:45 | 51.22803 | -0.12087 | 2976 ft | 241 kts | 256° |
| 2026-05-04 15:45 | 51.22326 | -0.14646 | 2989 ft | 242 kts | 256° |
| 2026-05-04 15:46 | 51.21933 | -0.17269 | 2977 ft | 243 kts | 259° |
| 2026-05-04 15:46 | 51.21595 | -0.20039 | 2997 ft | 259 kts | 261° |
| 2026-05-04 15:46 | 51.21263 | -0.22905 | 2998 ft | 265 kts | 261° |
| 2026-05-04 15:46 | 51.20925 | -0.25835 | 2997 ft | 267 kts | 261° |
| 2026-05-04 15:47 | 51.20587 | -0.28753 | 2998 ft | 267 kts | 261° |
| 2026-05-04 15:47 | 51.20250 | -0.31663 | 2999 ft | 268 kts | 261° |
| 2026-05-04 15:47 | 51.19756 | -0.34523 | 2989 ft | 268 kts | 245° |
| 2026-05-04 15:47 | 51.18825 | -0.37153 | 3387 ft | 275 kts | 239° |
| 2026-05-04 15:48 | 51.17817 | -0.39717 | 4190 ft | 270 kts | 238° |
| 2026-05-04 15:48 | 51.16826 | -0.42221 | 4823 ft | 271 kts | 238° |
| 2026-05-04 15:48 | 51.14794 | -0.47364 | 6038 ft | 275 kts | 238° |
| 2026-05-04 15:49 | 51.13777 | -0.49940 | 6638 ft | 276 kts | 238° |
| 2026-05-04 15:49 | 51.12763 | -0.52507 | 7210 ft | 278 kts | 238° |
| 2026-05-04 15:49 | 51.11724 | -0.55130 | 7773 ft | 280 kts | 238° |
| 2026-05-04 15:49 | 51.10690 | -0.57741 | 8363 ft | 281 kts | 238° |
| 2026-05-04 15:50 | 51.09647 | -0.60372 | 8912 ft | 283 kts | 238° |
| 2026-05-04 15:50 | 51.08586 | -0.63044 | 9437 ft | 286 kts | 238° |
| 2026-05-04 15:50 | 51.07519 | -0.65729 | 9972 ft | 287 kts | 237° |
| 2026-05-04 15:50 | 51.06437 | -0.68448 | 10323 ft | 297 kts | 237° |
| 2026-05-04 15:51 | 51.05343 | -0.71195 | 10507 ft | 312 kts | 237° |
| 2026-05-04 15:51 | 51.04181 | -0.74248 | 10677 ft | 328 kts | 243° |
| 2026-05-04 15:51 | 51.03376 | -0.77496 | 10805 ft | 343 kts | 254° |
| 2026-05-04 15:51 | 51.02830 | -0.81277 | 10993 ft | 358 kts | 257° |
| 2026-05-04 15:52 | 51.02309 | -0.85224 | 11242 ft | 371 kts | 257° |
| 2026-05-04 15:52 | 51.01768 | -0.89269 | 11721 ft | 376 kts | 257° |
| 2026-05-04 15:52 | 51.01220 | -0.93327 | 12237 ft | 379 kts | 257° |
| 2026-05-04 15:52 | 51.00655 | -0.97474 | 12773 ft | 382 kts | 257° |
| 2026-05-04 15:53 | 51.00089 | -1.01620 | 13296 ft | 386 kts | 257° |
| 2026-05-04 15:53 | 50.99520 | -1.05765 | 13824 ft | 389 kts | 257° |
| 2026-05-04 15:53 | 50.98938 | -1.09991 | 14345 ft | 392 kts | 257° |
| 2026-05-04 15:53 | 50.98346 | -1.14274 | 14874 ft | 394 kts | 257° |
| 2026-05-04 15:54 | 50.97754 | -1.18545 | 15415 ft | 397 kts | 257° |
| 2026-05-04 15:54 | 50.97160 | -1.22813 | 15881 ft | 400 kts | 257° |
| 2026-05-04 15:54 | 50.96552 | -1.27168 | 16365 ft | 404 kts | 257° |
| 2026-05-04 15:54 | 50.95947 | -1.31490 | 16848 ft | 406 kts | 257° |
| 2026-05-04 15:55 | 50.95329 | -1.35920 | 17340 ft | 409 kts | 257° |